createdAt,value
2022-10-22T00:01:49.589Z,14.80
2022-10-22T00:04:51.916Z,13.98
2022-10-22T00:07:53.988Z,13.35
2022-10-22T00:10:56.899Z,11.77
2022-10-22T00:13:59.045Z,12.43
2022-10-22T00:17:01.394Z,14.30
2022-10-22T00:20:04.601Z,12.75
2022-10-22T00:23:06.735Z,10.18
2022-10-22T00:26:09.428Z,11.93
2022-10-22T00:29:11.539Z,11.35
2022-10-22T00:32:13.764Z,11.82
2022-10-22T00:35:15.984Z,11.13
2022-10-22T00:38:18.211Z,12.38
2022-10-22T00:41:20.374Z,13.23
2022-10-22T00:45:00.033Z,12.40
2022-10-22T00:48:06.726Z,13.15
2022-10-22T00:51:09.816Z,12.45
2022-10-22T00:54:12.103Z,12.30
2022-10-22T00:57:15.852Z,13.32
2022-10-22T01:00:18.291Z,10.95
2022-10-22T01:03:20.790Z,12.30
2022-10-22T01:06:33.210Z,12.73
2022-10-22T01:10:16.220Z,13.05
2022-10-22T01:13:41.081Z,13.07
2022-10-22T01:16:59.444Z,11.60
2022-10-22T01:20:20.013Z,11.80
2022-10-22T01:23:53.197Z,12.70
2022-10-22T01:27:35.241Z,10.63
2022-10-22T01:30:39.507Z,11.93
2022-10-22T01:33:44.207Z,11.73
2022-10-22T01:36:47.860Z,10.43
2022-10-22T01:39:51.906Z,13.27
2022-10-22T01:42:59.184Z,15.18
2022-10-22T01:46:04.790Z,12.02
2022-10-22T01:49:41.361Z,13.77
2022-10-22T01:52:46.573Z,12.07
2022-10-22T01:56:13.468Z,14.07
2022-10-22T01:59:29.229Z,12.75
2022-10-22T02:03:23.669Z,14.00
2022-10-22T02:06:29.646Z,14.75
2022-10-22T02:09:33.379Z,13.05
2022-10-22T02:12:36.019Z,12.30
2022-10-22T02:15:40.313Z,12.23
2022-10-22T02:18:45.097Z,13.00
2022-10-22T02:21:47.508Z,12.88
2022-10-22T02:24:50.547Z,13.63
2022-10-22T02:28:04.866Z,12.35
2022-10-22T02:31:17.000Z,13.80
2022-10-22T02:34:24.434Z,11.35
2022-10-22T02:37:27.762Z,14.20
2022-10-22T02:40:31.640Z,13.55
2022-10-22T02:43:44.489Z,13.02
2022-10-22T02:46:46.652Z,13.30
2022-10-22T02:49:48.855Z,15.02
2022-10-22T02:52:50.939Z,12.38
2022-10-22T02:55:53.083Z,14.52
2022-10-22T02:58:55.199Z,12.93
2022-10-22T03:01:57.402Z,14.48
2022-10-22T03:04:59.597Z,13.48
2022-10-22T03:08:01.704Z,14.13
2022-10-22T03:11:03.886Z,11.50
2022-10-22T03:14:06.070Z,11.27
2022-10-22T03:17:08.322Z,11.00
2022-10-22T03:20:10.839Z,13.73
2022-10-22T03:23:17.298Z,13.65
2022-10-22T03:26:20.194Z,13.80
2022-10-22T03:29:24.665Z,11.57
2022-10-22T03:32:26.855Z,15.77
2022-10-22T03:35:29.062Z,13.02
2022-10-22T03:38:31.445Z,12.73
2022-10-22T03:41:34.697Z,14.02
2022-10-22T03:44:38.392Z,14.60
2022-10-22T03:47:40.929Z,13.05
2022-10-22T03:50:43.310Z,13.50
2022-10-22T03:53:45.372Z,12.48
2022-10-22T03:56:47.585Z,12.70
2022-10-22T03:59:51.078Z,13.65
2022-10-22T04:02:53.239Z,14.23
2022-10-22T04:05:55.354Z,14.68
2022-10-22T04:08:57.544Z,13.23
2022-10-22T04:12:00.674Z,12.98
2022-10-22T04:15:02.807Z,14.27
2022-10-22T04:18:04.946Z,14.30
2022-10-22T04:21:09.676Z,13.98
2022-10-22T04:24:11.890Z,12.77
2022-10-22T04:27:14.969Z,14.43
2022-10-22T04:30:17.163Z,15.82
2022-10-22T04:33:19.463Z,15.23
2022-10-22T04:36:22.101Z,14.30
2022-10-22T04:39:24.184Z,16.13
2022-10-22T04:42:26.328Z,17.35
2022-10-22T04:45:28.513Z,14.70
2022-10-22T04:48:30.684Z,15.50
2022-10-22T04:51:33.060Z,14.07
2022-10-22T04:54:35.159Z,13.60
2022-10-22T04:57:37.512Z,13.73
2022-10-22T05:00:39.777Z,15.18
2022-10-22T05:03:42.897Z,15.18
2022-10-22T05:06:45.325Z,15.50
2022-10-22T05:09:47.399Z,15.60
2022-10-22T05:12:49.594Z,19.70
2022-10-22T05:15:52.144Z,14.77
2022-10-22T05:18:54.300Z,16.35
2022-10-22T05:21:58.780Z,15.25
2022-10-22T05:25:01.287Z,18.45
2022-10-22T05:28:03.447Z,16.67
2022-10-22T05:31:07.848Z,16.50
2022-10-22T05:34:10.168Z,18.92
2022-10-22T05:37:12.208Z,16.23
2022-10-22T05:40:26.470Z,16.60
2022-10-22T05:43:29.404Z,16.38
2022-10-22T05:46:34.915Z,18.65
2022-10-22T05:49:37.763Z,17.25
2022-10-22T05:52:40.110Z,15.00
2022-10-22T05:55:42.424Z,17.85
2022-10-22T05:58:45.627Z,18.63
2022-10-22T06:01:47.851Z,17.45
2022-10-22T06:04:50.006Z,15.52
2022-10-22T06:07:52.295Z,15.48
2022-10-22T06:10:54.632Z,15.88
2022-10-22T06:13:56.786Z,15.63
2022-10-22T06:17:00.535Z,17.13
2022-10-22T06:20:02.916Z,17.85
2022-10-22T06:23:05.133Z,15.77
2022-10-22T06:26:08.055Z,18.27
2022-10-22T06:29:10.534Z,16.38
2022-10-22T06:32:12.699Z,15.20
2022-10-22T06:35:15.012Z,16.88
2022-10-22T06:38:17.269Z,15.50
2022-10-22T06:41:19.735Z,15.05
2022-10-22T06:44:21.970Z,16.55
2022-10-22T06:47:24.036Z,14.90
2022-10-22T06:50:26.360Z,16.80
2022-10-22T06:53:28.635Z,14.77
2022-10-22T06:56:30.738Z,17.90
2022-10-22T06:59:32.932Z,15.63
2022-10-22T07:02:35.247Z,20.65
2022-10-22T07:05:37.405Z,17.30
2022-10-22T07:08:40.990Z,18.27
2022-10-22T07:11:45.242Z,18.75
2022-10-22T07:14:47.325Z,15.88
2022-10-22T07:17:49.688Z,14.98
2022-10-22T07:20:51.849Z,12.52
2022-10-22T07:23:54.057Z,13.52
2022-10-22T07:26:56.286Z,13.10
2022-10-22T07:30:01.188Z,15.25
2022-10-22T07:33:03.582Z,12.77
2022-10-22T07:36:08.735Z,12.93
2022-10-22T07:39:10.891Z,13.23
2022-10-22T07:42:12.967Z,13.13
2022-10-22T07:45:15.173Z,14.98
2022-10-22T07:48:17.712Z,13.80
2022-10-22T07:51:19.839Z,14.25
2022-10-22T07:54:21.966Z,14.38
2022-10-22T07:57:24.312Z,15.18
2022-10-22T08:00:26.617Z,17.85
2022-10-22T08:03:29.728Z,12.70
2022-10-22T08:06:31.930Z,16.58
2022-10-22T08:09:34.096Z,15.07
2022-10-22T08:12:36.678Z,11.65
2022-10-22T08:15:39.599Z,14.32
2022-10-22T08:18:42.150Z,17.05
2022-10-22T08:21:44.759Z,15.40
2022-10-22T08:24:47.023Z,14.65
2022-10-22T08:27:49.187Z,16.98
2022-10-22T08:30:51.447Z,15.68
2022-10-22T08:33:53.531Z,14.25
2022-10-22T08:36:55.792Z,13.27
2022-10-22T08:39:57.932Z,13.40
2022-10-22T08:43:12.816Z,12.70
2022-10-22T08:46:20.882Z,10.90
2022-10-22T08:49:43.631Z,12.52
2022-10-22T08:52:51.843Z,11.77
2022-10-22T08:55:54.713Z,15.20
2022-10-22T08:59:02.984Z,13.18
2022-10-22T09:02:22.566Z,13.13
2022-10-22T09:05:42.566Z,12.43
2022-10-22T09:08:47.009Z,12.40
2022-10-22T09:11:53.498Z,13.05
2022-10-22T09:14:56.015Z,12.38
2022-10-22T09:18:24.340Z,12.43
2022-10-22T09:21:46.899Z,15.25
2022-10-22T09:24:58.275Z,12.57
2022-10-22T09:28:00.474Z,10.90
2022-10-22T09:31:02.633Z,14.93
2022-10-22T09:34:07.658Z,10.13
2022-10-22T09:37:11.021Z,13.27
2022-10-22T09:40:15.196Z,13.20
2022-10-22T09:43:18.048Z,12.18
2022-10-22T09:46:24.906Z,13.13
2022-10-22T09:49:33.055Z,11.75
2022-10-22T09:52:35.741Z,13.32
2022-10-22T09:55:40.470Z,13.27
2022-10-22T09:58:49.440Z,12.85
2022-10-22T10:02:08.367Z,13.68
2022-10-22T10:05:25.295Z,12.32
2022-10-22T10:08:27.537Z,10.35
2022-10-22T10:11:43.315Z,13.85
2022-10-22T10:15:21.567Z,9.63
2022-10-22T10:18:35.783Z,15.85
2022-10-22T10:21:52.206Z,18.60
2022-10-22T10:25:33.404Z,13.73
2022-10-22T10:28:38.246Z,11.98
2022-10-22T10:32:21.110Z,12.73
2022-10-22T10:35:34.734Z,12.10
2022-10-22T10:38:48.733Z,14.05
2022-10-22T10:41:59.358Z,12.75
2022-10-22T10:45:13.496Z,14.73
2022-10-22T10:48:24.017Z,12.77
2022-10-22T10:51:42.489Z,12.57
2022-10-22T10:55:11.215Z,10.95
2022-10-22T10:58:25.847Z,15.65
2022-10-22T11:01:40.539Z,12.93
2022-10-22T11:05:21.808Z,11.98
2022-10-22T11:08:32.632Z,12.85
2022-10-22T11:11:48.138Z,16.95
2022-10-22T11:15:02.059Z,15.60
2022-10-22T11:18:41.793Z,15.07
2022-10-22T11:22:11.596Z,10.15
2022-10-22T11:25:13.745Z,11.68
2022-10-22T11:28:38.120Z,10.98
2022-10-22T11:31:41.462Z,15.80
2022-10-22T11:34:55.073Z,13.85
2022-10-22T11:37:58.020Z,16.42
2022-10-22T11:41:10.028Z,12.52
2022-10-22T11:44:23.348Z,10.75
2022-10-22T11:47:32.533Z,10.45
2022-10-22T11:50:47.286Z,10.90
2022-10-22T11:53:57.178Z,11.23
2022-10-22T11:57:16.814Z,12.68
2022-10-22T12:00:41.381Z,9.75
2022-10-22T12:03:49.437Z,10.93
2022-10-22T12:06:57.482Z,9.73
2022-10-22T12:10:00.022Z,11.40
2022-10-22T12:13:12.021Z,9.55
2022-10-22T12:16:14.949Z,10.27
2022-10-22T12:19:23.098Z,10.93
2022-10-22T12:22:34.050Z,10.52
2022-10-22T12:25:36.720Z,10.18
2022-10-22T12:28:42.043Z,10.05
2022-10-22T12:31:46.201Z,8.15
2022-10-22T12:34:52.882Z,10.27
2022-10-22T12:38:05.195Z,9.57
2022-10-22T12:41:10.270Z,9.00
2022-10-22T12:44:15.154Z,9.57
2022-10-22T12:47:18.605Z,8.60
2022-10-22T12:50:25.576Z,7.00
2022-10-22T12:53:35.344Z,10.35
2022-10-22T12:56:38.380Z,6.90
2022-10-22T12:59:45.905Z,8.10
2022-10-22T13:02:52.702Z,7.43
2022-10-22T13:05:54.867Z,7.32
2022-10-22T13:09:00.275Z,8.32
2022-10-22T13:12:08.130Z,6.38
2022-10-22T13:15:22.757Z,10.23
2022-10-22T13:18:26.161Z,6.18
2022-10-22T13:21:30.268Z,6.85
2022-10-22T13:24:32.454Z,6.45
2022-10-22T13:27:34.741Z,8.73
2022-10-22T13:30:39.197Z,5.88
2022-10-22T13:33:44.161Z,6.45
2022-10-22T13:36:46.719Z,8.13
2022-10-22T13:39:48.917Z,7.43
2022-10-22T13:42:51.182Z,9.63
2022-10-22T13:45:57.557Z,8.45
2022-10-22T13:49:00.547Z,7.97
2022-10-22T13:52:02.680Z,6.22
2022-10-22T13:55:29.676Z,10.63
2022-10-22T13:58:31.848Z,8.80
2022-10-22T14:01:34.105Z,6.30
2022-10-22T14:04:40.011Z,4.85
2022-10-22T14:07:42.656Z,8.20
2022-10-22T14:10:45.352Z,7.45
2022-10-22T14:13:47.545Z,5.03
2022-10-22T14:16:49.703Z,6.00
2022-10-22T14:19:52.085Z,6.95
2022-10-22T14:22:54.520Z,8.00
2022-10-22T14:25:57.167Z,7.38
2022-10-22T14:29:15.689Z,6.93
2022-10-22T14:32:21.871Z,7.53
2022-10-22T14:35:24.399Z,6.57
2022-10-22T14:38:26.688Z,6.75
2022-10-22T14:41:29.744Z,8.55
2022-10-22T14:44:31.868Z,6.93
2022-10-22T14:47:34.223Z,5.97
2022-10-22T14:50:36.405Z,6.50
2022-10-22T14:53:38.490Z,7.70
2022-10-22T14:56:40.607Z,5.95
2022-10-22T14:59:43.197Z,8.00
2022-10-22T15:02:45.705Z,5.53
2022-10-22T15:05:53.827Z,5.53
2022-10-22T15:08:56.036Z,8.45
2022-10-22T15:11:58.289Z,8.00
2022-10-22T15:15:00.413Z,6.85
2022-10-22T15:18:02.565Z,4.60
2022-10-22T15:21:17.536Z,5.35
2022-10-22T15:24:19.692Z,5.20
2022-10-22T15:27:21.797Z,7.28
2022-10-22T15:30:24.077Z,5.32
2022-10-22T15:33:27.328Z,5.90
2022-10-22T15:36:29.530Z,5.55
2022-10-22T15:39:32.073Z,5.28
2022-10-22T15:42:34.228Z,6.97
2022-10-22T15:45:36.726Z,6.10
2022-10-22T15:48:38.973Z,7.97
2022-10-22T15:51:41.072Z,5.88
2022-10-22T15:54:43.987Z,6.90
2022-10-22T15:57:46.213Z,6.20
2022-10-22T16:00:48.608Z,5.28
2022-10-22T16:04:00.384Z,5.63
2022-10-22T16:07:02.567Z,6.70
2022-10-22T16:10:07.693Z,5.13
2022-10-22T16:13:09.908Z,5.32
2022-10-22T16:16:12.126Z,6.43
2022-10-22T16:19:16.131Z,8.65
2022-10-22T16:22:18.288Z,6.38
2022-10-22T16:25:20.422Z,7.03
2022-10-22T16:28:22.658Z,7.50
2022-10-22T16:31:25.066Z,5.43
2022-10-22T16:34:28.390Z,8.38
2022-10-22T16:37:31.485Z,7.18
2022-10-22T16:40:33.621Z,9.50
2022-10-22T16:43:35.792Z,6.80
2022-10-22T16:46:38.691Z,5.15
2022-10-22T16:49:40.936Z,7.25
2022-10-22T16:52:43.185Z,7.50
2022-10-22T16:55:45.326Z,10.05
2022-10-22T16:58:55.106Z,7.15
2022-10-22T17:02:00.903Z,7.88
2022-10-22T17:05:03.286Z,6.38
2022-10-22T17:08:05.704Z,7.45
2022-10-22T17:11:09.347Z,6.70
2022-10-22T17:14:11.608Z,5.88
2022-10-22T17:17:13.827Z,8.45
2022-10-22T17:20:16.075Z,8.40
2022-10-22T17:23:18.200Z,8.75
2022-10-22T17:26:22.874Z,7.20
2022-10-22T17:29:25.452Z,8.68
2022-10-22T17:32:29.245Z,7.30
2022-10-22T17:35:31.775Z,7.55
2022-10-22T17:38:34.038Z,14.43
2022-10-22T17:41:37.818Z,10.13
2022-10-22T17:44:40.073Z,8.70
2022-10-22T17:47:42.464Z,8.15
2022-10-22T17:50:48.226Z,8.15
2022-10-22T17:53:53.353Z,8.77
2022-10-22T17:56:55.492Z,9.05
2022-10-22T17:59:57.780Z,7.68
2022-10-22T18:03:01.377Z,8.55
2022-10-22T18:06:08.308Z,6.70
2022-10-22T18:09:17.313Z,6.47
2022-10-22T18:12:21.157Z,6.15
2022-10-22T18:15:24.536Z,5.43
2022-10-22T18:18:32.648Z,9.93
2022-10-22T18:21:35.383Z,7.10
2022-10-22T18:24:39.156Z,4.88
2022-10-22T18:27:41.733Z,4.95
2022-10-22T18:30:46.033Z,8.85
2022-10-22T18:33:48.756Z,6.72
2022-10-22T18:36:51.233Z,5.07
2022-10-22T18:39:53.621Z,4.05
2022-10-22T18:42:56.477Z,3.63
2022-10-22T18:45:58.686Z,3.53
2022-10-22T18:49:01.540Z,3.63
2022-10-22T18:52:04.081Z,4.07
2022-10-22T18:55:06.606Z,3.08
2022-10-22T18:58:08.720Z,3.47
2022-10-22T19:01:24.903Z,3.15
2022-10-22T19:04:33.262Z,5.53
2022-10-22T19:07:36.663Z,3.75
2022-10-22T19:10:39.281Z,3.53
2022-10-22T19:13:42.149Z,3.40
2022-10-22T19:16:44.295Z,3.67
2022-10-22T19:19:46.321Z,3.20
2022-10-22T19:22:50.099Z,3.63
2022-10-22T19:26:03.937Z,3.80
2022-10-22T19:29:06.207Z,3.90
2022-10-22T22:22:19.367Z,6.28
2022-10-22T22:25:21.816Z,7.50
2022-10-22T22:28:24.017Z,7.35
2022-10-22T22:31:28.811Z,6.78
2022-10-22T22:34:31.004Z,9.85
2022-10-22T22:37:33.089Z,7.45
2022-10-22T22:40:37.817Z,5.97
2022-10-22T22:43:40.043Z,7.85
2022-10-22T22:46:42.521Z,6.32
2022-10-22T22:49:44.713Z,7.80
2022-10-22T22:52:47.433Z,6.55
2022-10-22T22:55:50.218Z,6.93
2022-10-22T22:58:52.827Z,9.57
2022-10-22T23:01:54.913Z,8.55
2022-10-22T23:04:57.184Z,7.78
2022-10-22T23:07:59.272Z,9.27
2022-10-22T23:11:06.369Z,7.82
2022-10-22T23:14:10.726Z,7.72
2022-10-22T23:17:13.204Z,11.52
2022-10-22T23:20:15.385Z,11.05
2022-10-22T23:23:17.699Z,7.55
2022-10-22T23:26:22.937Z,7.78
2022-10-22T23:29:27.635Z,10.40
2022-10-22T23:32:29.806Z,10.23
2022-10-22T23:35:32.095Z,7.88
2022-10-22T23:38:35.964Z,9.00
2022-10-22T23:41:38.481Z,7.75
2022-10-22T23:44:40.719Z,9.23
2022-10-22T23:47:43.414Z,8.82
2022-10-22T23:50:46.567Z,8.40
2022-10-22T23:53:54.943Z,9.75
2022-10-22T23:56:57.119Z,7.40
2022-10-22T23:59:59.279Z,9.75
